createdAt,value
2017-11-04T00:00:05.431Z,1007.55
2017-11-04T00:01:14.056Z,1007.56
2017-11-04T00:02:23.033Z,1007.54
2017-11-04T00:03:31.654Z,1007.54
2017-11-04T00:04:40.288Z,1007.52
2017-11-04T00:05:48.905Z,1007.44
2017-11-04T00:06:57.539Z,1007.49
2017-11-04T00:08:06.155Z,1007.45
2017-11-04T00:09:14.780Z,1007.42
2017-11-04T00:10:23.408Z,1007.41
2017-11-04T00:11:32.373Z,1007.38
2017-11-04T00:12:40.993Z,1007.37
2017-11-04T00:13:49.616Z,1007.32
2017-11-04T00:14:58.240Z,1007.33
2017-11-04T00:16:06.861Z,1007.32
2017-11-04T00:17:15.490Z,1007.34
2017-11-04T00:18:24.114Z,1007.33
2017-11-04T00:19:32.727Z,1007.3
2017-11-04T00:20:41.353Z,1007.29
2017-11-04T00:21:49.977Z,1007.26
2017-11-04T00:22:58.611Z,1007.24
2017-11-04T00:24:07.229Z,1007.27
2017-11-04T00:25:15.850Z,1007.23
2017-11-04T00:26:24.475Z,1007.23
2017-11-04T00:27:33.100Z,1007.21
2017-11-04T00:28:41.719Z,1007.21
2017-11-04T00:29:50.345Z,1007.17
2017-11-04T00:30:58.969Z,1007.15
2017-11-04T00:32:07.584Z,1007.13
2017-11-04T00:33:16.211Z,1007.14
2017-11-04T00:34:24.837Z,1007.16
2017-11-04T00:35:33.463Z,1007.14
2017-11-04T00:36:42.091Z,1007.12
2017-11-04T00:37:50.707Z,1007.13
2017-11-04T00:38:59.335Z,1007.12
2017-11-04T00:40:07.957Z,1007.15
2017-11-04T00:41:16.573Z,1007.17
2017-11-04T00:42:25.531Z,1007.14
2017-11-04T00:43:34.491Z,1007.15
2017-11-04T00:44:43.109Z,1007.14
2017-11-04T00:45:51.730Z,1007.15
2017-11-04T00:47:00.359Z,1007.14
2017-11-04T00:48:08.981Z,1007.06
2017-11-04T00:49:17.606Z,1007.04
2017-11-04T00:50:26.221Z,1006.99
2017-11-04T00:51:34.848Z,1007.05
2017-11-04T00:52:43.473Z,1007.01
2017-11-04T00:53:52.094Z,1007
2017-11-04T00:55:00.717Z,1006.98
2017-11-04T00:56:09.348Z,1006.96
2017-11-04T00:57:17.963Z,1006.99
2017-11-04T00:58:26.592Z,1006.93
2017-11-04T00:59:35.209Z,1006.92
2017-11-04T01:00:43.834Z,1006.86
2017-11-04T01:01:52.462Z,1006.85
2017-11-04T01:03:01.081Z,1006.85
2017-11-04T01:04:10.044Z,1006.88
2017-11-04T01:05:18.666Z,1006.89
2017-11-04T01:06:27.287Z,1006.83
2017-11-04T01:07:35.915Z,1006.8
2017-11-04T01:08:44.532Z,1006.78
2017-11-04T01:09:53.157Z,1006.79
2017-11-04T01:11:01.785Z,1006.78
2017-11-04T01:12:10.405Z,1006.84
2017-11-04T01:13:19.024Z,1006.79
2017-11-04T01:14:27.648Z,1006.79
2017-11-04T01:15:36.271Z,1006.77
2017-11-04T01:16:44.891Z,1006.7
2017-11-04T01:17:53.525Z,1006.72
2017-11-04T01:19:02.170Z,1006.68
2017-11-04T01:20:10.795Z,1006.68
2017-11-04T01:21:19.420Z,1006.68
2017-11-04T01:22:28.044Z,1006.66
2017-11-04T01:23:36.668Z,1006.67
2017-11-04T01:24:45.290Z,1006.7
2017-11-04T01:25:53.913Z,1006.71
2017-11-04T01:27:02.541Z,1006.69
2017-11-04T01:28:11.495Z,1006.68
2017-11-04T01:29:20.448Z,1006.69
2017-11-04T01:30:29.401Z,1006.68
2017-11-04T01:31:38.028Z,1006.63
2017-11-04T01:32:46.645Z,1006.61
2017-11-04T01:33:55.282Z,1006.61
2017-11-04T01:35:03.895Z,1006.62
2017-11-04T01:36:12.522Z,1006.58
2017-11-04T01:37:21.141Z,1006.58
2017-11-04T01:38:29.766Z,1006.51
2017-11-04T01:39:38.391Z,1006.51
2017-11-04T01:40:47.015Z,1006.52
2017-11-04T01:41:55.632Z,1006.49
2017-11-04T01:43:04.271Z,1006.5
2017-11-04T01:44:12.897Z,1006.48
2017-11-04T01:45:21.513Z,1006.47
2017-11-04T01:46:30.138Z,1006.45
2017-11-04T01:47:38.765Z,1006.48
2017-11-04T01:48:47.383Z,1006.46
2017-11-04T01:49:56.012Z,1006.46
2017-11-04T01:51:04.951Z,1006.44
2017-11-04T01:52:13.579Z,1006.44
2017-11-04T01:53:22.203Z,1006.46
2017-11-04T01:54:30.819Z,1006.4
2017-11-04T01:55:39.449Z,1006.39
2017-11-04T01:56:48.072Z,1006.34
2017-11-04T01:57:56.694Z,1006.36
2017-11-04T01:59:05.317Z,1006.36
2017-11-04T02:00:13.931Z,1006.33
2017-11-04T02:01:22.555Z,1006.29
2017-11-04T02:02:31.176Z,1006.28
2017-11-04T02:03:39.802Z,1006.2
2017-11-04T02:04:48.427Z,1006.2
2017-11-04T02:05:57.043Z,1006.2
2017-11-04T02:07:06.004Z,1006.2
2017-11-04T02:08:14.630Z,1006.2
2017-11-04T02:09:23.248Z,1006.15
2017-11-04T02:10:31.871Z,1006.19
2017-11-04T02:11:40.497Z,1006.16
2017-11-04T02:12:49.118Z,1006.15
2017-11-04T02:13:57.743Z,1006.12
2017-11-04T02:15:06.368Z,1006.12
2017-11-04T02:16:14.983Z,1006.11
2017-11-04T02:17:23.613Z,1006.11
2017-11-04T02:18:32.226Z,1006.11
2017-11-04T02:19:40.853Z,1006.1
2017-11-04T02:20:49.477Z,1006.09
2017-11-04T02:21:58.098Z,1006.08
2017-11-04T02:23:06.716Z,1006.04
2017-11-04T02:24:15.338Z,1006.04
2017-11-04T02:25:23.958Z,1006.04
2017-11-04T02:26:32.579Z,1006.02
2017-11-04T02:27:41.210Z,1006.04
2017-11-04T02:28:49.832Z,1005.95
2017-11-04T02:29:58.448Z,1005.92
2017-11-04T02:31:07.081Z,1005.9
2017-11-04T02:32:15.701Z,1005.89
2017-11-04T02:33:24.330Z,1005.89
2017-11-04T02:34:32.951Z,1005.87
2017-11-04T02:35:41.572Z,1005.89
2017-11-04T02:36:50.198Z,1005.83
2017-11-04T02:37:58.819Z,1005.84
2017-11-04T02:39:07.442Z,1005.83
2017-11-04T02:40:16.071Z,1005.79
2017-11-04T02:41:24.691Z,1005.79
2017-11-04T02:42:33.662Z,1005.8
2017-11-04T02:43:42.288Z,1005.75
2017-11-04T02:44:50.914Z,1005.74
2017-11-04T02:45:59.530Z,1005.73
2017-11-04T02:47:08.156Z,1005.74
2017-11-04T02:48:16.775Z,1005.75
2017-11-04T02:49:25.404Z,1005.73
2017-11-04T02:50:34.023Z,1005.75
2017-11-04T02:51:42.644Z,1005.72
2017-11-04T02:52:51.270Z,1005.72
2017-11-04T02:53:59.885Z,1005.77
2017-11-04T02:55:08.515Z,1005.75
2017-11-04T02:56:17.140Z,1005.74
2017-11-04T02:57:25.772Z,1005.74
2017-11-04T02:58:34.396Z,1005.71
2017-11-04T02:59:43.019Z,1005.71
2017-11-04T03:00:51.640Z,1005.74
2017-11-04T03:02:00.261Z,1005.7
2017-11-04T03:03:08.884Z,1005.73
2017-11-04T03:04:17.518Z,1005.72
2017-11-04T03:05:26.134Z,1005.73
2017-11-04T03:06:34.754Z,1005.7
2017-11-04T03:07:43.386Z,1005.72
2017-11-04T03:08:52.009Z,1005.69
2017-11-04T03:10:00.637Z,1005.66
2017-11-04T03:11:09.260Z,1005.69
2017-11-04T03:12:17.887Z,1005.7
2017-11-04T03:13:26.504Z,1005.62
2017-11-04T03:14:35.128Z,1005.6
2017-11-04T03:15:44.075Z,1005.58
2017-11-04T03:16:52.702Z,1005.64
2017-11-04T03:18:01.321Z,1005.64
2017-11-04T03:19:09.943Z,1005.61
2017-11-04T03:20:18.566Z,1005.61
2017-11-04T03:21:27.194Z,1005.61
2017-11-04T03:22:35.811Z,1005.59
2017-11-04T03:23:44.437Z,1005.59
2017-11-04T03:24:53.058Z,1005.61
2017-11-04T03:26:01.689Z,1005.57
2017-11-04T03:27:10.309Z,1005.57
2017-11-04T03:28:18.932Z,1005.55
2017-11-04T03:29:27.555Z,1005.52
2017-11-04T03:30:36.170Z,1005.51
2017-11-04T03:31:44.800Z,1005.51
2017-11-04T03:32:53.419Z,1005.5
2017-11-04T03:34:02.042Z,1005.53
2017-11-04T03:35:10.668Z,1005.53
2017-11-04T03:36:19.289Z,1005.52
2017-11-04T03:37:27.908Z,1005.47
2017-11-04T03:38:36.531Z,1005.47
2017-11-04T03:39:45.157Z,1005.47
2017-11-04T03:40:53.774Z,1005.47
2017-11-04T03:42:02.395Z,1005.47
2017-11-04T03:43:11.027Z,1005.45
2017-11-04T03:44:19.636Z,1005.44
2017-11-04T03:45:28.264Z,1005.47
2017-11-04T03:46:36.884Z,1005.48
2017-11-04T03:47:45.512Z,1005.46
2017-11-04T03:48:54.135Z,1005.41
2017-11-04T03:50:02.752Z,1005.38
2017-11-04T03:51:11.378Z,1005.37
2017-11-04T03:52:19.994Z,1005.35
2017-11-04T03:53:28.623Z,1005.35
2017-11-04T03:54:37.248Z,1005.36
2017-11-04T03:55:45.865Z,1005.32
2017-11-04T03:56:54.490Z,1005.34
2017-11-04T03:58:03.445Z,1005.32
2017-11-04T03:59:12.063Z,1005.34
2017-11-04T04:00:20.685Z,1005.36
2017-11-04T04:01:29.304Z,1005.36
2017-11-04T04:02:37.934Z,1005.29
2017-11-04T04:03:46.885Z,1005.3
2017-11-04T04:04:55.505Z,1005.32
2017-11-04T04:06:04.135Z,1005.33
2017-11-04T04:07:12.758Z,1005.32
2017-11-04T04:08:21.374Z,1005.36
2017-11-04T04:09:30.000Z,1005.33
2017-11-04T04:10:38.620Z,1005.34
2017-11-04T04:11:47.239Z,1005.31
2017-11-04T04:12:55.862Z,1005.31
2017-11-04T04:14:04.494Z,1005.25
2017-11-04T04:15:13.111Z,1005.26
2017-11-04T04:16:21.738Z,1005.24
2017-11-04T04:17:30.355Z,1005.22
2017-11-04T04:18:39.309Z,1005.21
2017-11-04T04:19:47.931Z,1005.21
2017-11-04T04:20:56.546Z,1005.17
2017-11-04T04:22:05.504Z,1005.15
2017-11-04T04:23:14.131Z,1005.18
2017-11-04T04:24:22.754Z,1005.18
2017-11-04T04:25:31.375Z,1005.17
2017-11-04T04:26:40.004Z,1005.15
2017-11-04T04:27:48.623Z,1005.15
2017-11-04T04:28:57.248Z,1005.14
2017-11-04T04:30:05.861Z,1005.15
2017-11-04T04:31:14.486Z,1005.16
2017-11-04T04:32:23.120Z,1005.13
2017-11-04T04:33:31.742Z,1005.15
2017-11-04T04:34:40.360Z,1005.15
2017-11-04T04:35:48.988Z,1005.12
2017-11-04T04:36:57.609Z,1005.1
2017-11-04T04:38:06.234Z,1005.08
2017-11-04T04:39:14.865Z,1005.05
2017-11-04T04:40:23.485Z,1005.07
2017-11-04T04:41:32.104Z,1005.08
2017-11-04T04:42:40.761Z,1005.08
2017-11-04T04:43:49.349Z,1005.06
2017-11-04T04:44:57.979Z,1005.03
2017-11-04T04:46:06.595Z,1005.02
2017-11-04T04:47:15.218Z,1005.02
2017-11-04T04:48:23.845Z,1004.99
2017-11-04T04:49:32.466Z,1005.01
2017-11-04T04:50:41.089Z,1005.01
2017-11-04T04:51:49.708Z,1004.97
2017-11-04T04:52:58.326Z,1004.96
2017-11-04T04:54:06.957Z,1004.99
2017-11-04T04:55:15.581Z,1004.97
2017-11-04T04:56:24.201Z,1004.98
2017-11-04T04:57:32.830Z,1005.03
2017-11-04T04:58:41.445Z,1005
2017-11-04T04:59:50.076Z,1004.98
2017-11-04T05:00:58.697Z,1004.93
2017-11-04T05:02:07.316Z,1004.99
2017-11-04T05:03:15.944Z,1004.96
2017-11-04T05:04:24.563Z,1004.92
2017-11-04T05:05:33.183Z,1004.93
2017-11-04T05:06:41.815Z,1004.94
2017-11-04T05:07:50.437Z,1004.91
2017-11-04T05:08:59.058Z,1004.87
2017-11-04T05:10:07.682Z,1004.85
2017-11-04T05:11:16.309Z,1004.8
2017-11-04T05:12:25.252Z,1004.72
2017-11-04T05:13:33.880Z,1004.69
2017-11-04T05:14:42.497Z,1004.7
2017-11-04T05:15:51.124Z,1004.67
2017-11-04T05:16:59.743Z,1004.66
2017-11-04T05:18:08.364Z,1004.67
2017-11-04T05:19:16.990Z,1004.64
2017-11-04T05:20:25.614Z,1004.63
2017-11-04T05:21:34.233Z,1004.64
2017-11-04T05:22:42.858Z,1004.68
2017-11-04T05:23:51.481Z,1004.62
2017-11-04T05:25:00.117Z,1004.64
2017-11-04T05:26:08.721Z,1004.57
2017-11-04T05:27:17.344Z,1004.55
2017-11-04T05:28:25.971Z,1004.56
2017-11-04T05:29:34.596Z,1004.54
2017-11-04T05:30:43.210Z,1004.55
2017-11-04T05:31:51.836Z,1004.55
2017-11-04T05:33:00.460Z,1004.53
2017-11-04T05:34:09.075Z,1004.55
2017-11-04T05:35:17.700Z,1004.57
2017-11-04T05:36:26.327Z,1004.57
2017-11-04T05:37:34.947Z,1004.61
2017-11-04T05:38:43.569Z,1004.6
2017-11-04T05:39:52.199Z,1004.62
2017-11-04T05:41:00.817Z,1004.59
2017-11-04T05:42:09.442Z,1004.61
2017-11-04T05:43:18.055Z,1004.59
2017-11-04T05:44:26.681Z,1004.58
2017-11-04T05:45:35.304Z,1004.54
2017-11-04T05:46:43.924Z,1004.54
2017-11-04T05:47:52.874Z,1004.51
2017-11-04T05:49:01.503Z,1004.43
2017-11-04T05:50:10.123Z,1004.46
2017-11-04T05:51:18.745Z,1004.44
2017-11-04T05:52:27.360Z,1004.37
2017-11-04T05:53:35.983Z,1004.39
2017-11-04T05:54:44.609Z,1004.37
2017-11-04T05:55:53.230Z,1004.37
2017-11-04T05:57:01.859Z,1004.38
2017-11-04T05:58:10.476Z,1004.35
2017-11-04T05:59:19.097Z,1004.37
2017-11-04T06:00:27.723Z,1004.32
2017-11-04T06:01:36.341Z,1004.34
2017-11-04T06:02:44.966Z,1004.38
2017-11-04T06:03:53.590Z,1004.38
2017-11-04T06:05:02.209Z,1004.36
2017-11-04T06:06:10.832Z,1004.38
2017-11-04T06:07:19.459Z,1004.38
2017-11-04T06:08:28.417Z,1004.35
2017-11-04T06:09:37.032Z,1004.33
2017-11-04T06:10:45.660Z,1004.32
2017-11-04T06:11:54.276Z,1004.33
2017-11-04T06:13:02.900Z,1004.37
2017-11-04T06:14:11.522Z,1004.38
2017-11-04T06:15:20.139Z,1004.38
2017-11-04T06:16:28.767Z,1004.35
2017-11-04T06:17:37.389Z,1004.34
2017-11-04T06:18:46.015Z,1004.33
2017-11-04T06:19:54.636Z,1004.3
2017-11-04T06:21:03.257Z,1004.25
2017-11-04T06:22:11.877Z,1004.25
2017-11-04T06:23:20.502Z,1004.23
2017-11-04T06:24:29.124Z,1004.22
2017-11-04T06:25:37.737Z,1004.28
2017-11-04T06:26:46.362Z,1004.29
2017-11-04T06:27:54.980Z,1004.26
2017-11-04T06:29:03.610Z,1004.27
2017-11-04T06:30:12.228Z,1004.26
2017-11-04T06:31:20.847Z,1004.26
2017-11-04T06:32:29.469Z,1004.23
2017-11-04T06:33:38.096Z,1004.26
2017-11-04T06:34:46.712Z,1004.24
2017-11-04T06:35:55.334Z,1004.22
2017-11-04T06:37:03.958Z,1004.2
2017-11-04T06:38:12.572Z,1004.21
2017-11-04T06:39:21.198Z,1004.24
2017-11-04T06:40:29.822Z,1004.21
2017-11-04T06:41:38.445Z,1004.24
2017-11-04T06:42:47.074Z,1004.23
2017-11-04T06:43:55.687Z,1004.23
2017-11-04T06:45:04.311Z,1004.18
2017-11-04T06:46:12.936Z,1004.17
2017-11-04T06:47:21.552Z,1004.14
2017-11-04T06:48:30.182Z,1004.16
2017-11-04T06:49:38.802Z,1004.13
2017-11-04T06:50:47.431Z,1004.14
2017-11-04T06:51:56.057Z,1004.14
2017-11-04T06:53:04.676Z,1004.09
2017-11-04T06:54:13.628Z,1004.1
2017-11-04T06:55:22.249Z,1004.11
2017-11-04T06:56:30.880Z,1004.1
2017-11-04T06:57:39.502Z,1004.1
2017-11-04T06:58:48.121Z,1004.11
2017-11-04T06:59:56.745Z,1004.11
2017-11-04T07:01:05.369Z,1004.1
2017-11-04T07:02:13.988Z,1004.08
2017-11-04T07:03:22.615Z,1004.05
2017-11-04T07:04:31.237Z,1003.96
2017-11-04T07:05:39.853Z,1003.94
2017-11-04T07:06:48.478Z,1003.96
2017-11-04T07:07:57.105Z,1003.93
2017-11-04T07:09:05.726Z,1003.96
2017-11-04T07:10:14.355Z,1003.9
2017-11-04T07:11:23.302Z,1003.89
2017-11-04T07:12:31.927Z,1003.94
2017-11-04T07:13:40.553Z,1003.92
2017-11-04T07:14:49.171Z,1003.89
2017-11-04T07:15:57.799Z,1003.88
2017-11-04T07:17:06.423Z,1003.91
2017-11-04T07:18:15.049Z,1003.92
2017-11-04T07:19:23.673Z,1003.97
2017-11-04T07:20:32.287Z,1003.92
2017-11-04T07:21:40.913Z,1003.93
2017-11-04T07:22:49.536Z,1003.95
2017-11-04T07:23:58.151Z,1004.04
2017-11-04T07:25:07.126Z,1004
2017-11-04T07:26:15.746Z,1004.01
2017-11-04T07:27:24.371Z,1004.01
2017-11-04T07:28:32.993Z,1003.99
2017-11-04T07:29:41.609Z,1003.99
2017-11-04T07:30:50.232Z,1003.99
2017-11-04T07:31:58.857Z,1003.92
2017-11-04T07:33:07.473Z,1003.97
2017-11-04T07:34:16.098Z,1003.94
2017-11-04T07:35:24.720Z,1003.89
2017-11-04T07:36:33.338Z,1003.86
2017-11-04T07:37:41.965Z,1003.9
2017-11-04T07:38:50.591Z,1003.92
2017-11-04T07:39:59.218Z,1003.88
2017-11-04T07:41:07.836Z,1003.91
2017-11-04T07:42:16.449Z,1003.9
2017-11-04T07:43:25.078Z,1003.9
2017-11-04T07:44:33.699Z,1003.91
2017-11-04T07:45:42.318Z,1003.94
2017-11-04T07:46:51.279Z,1003.95
2017-11-04T07:47:59.902Z,1003.97
2017-11-04T07:49:08.526Z,1003.94
2017-11-04T07:50:17.149Z,1003.93
2017-11-04T07:51:25.764Z,1003.88
2017-11-04T07:52:34.719Z,1003.9
2017-11-04T07:53:43.348Z,1003.9
2017-11-04T07:54:51.973Z,1003.87
2017-11-04T07:56:00.600Z,1003.86
2017-11-04T07:57:09.214Z,1003.82
2017-11-04T07:58:17.846Z,1003.79
2017-11-04T07:59:26.465Z,1003.74
2017-11-04T08:00:35.081Z,1003.73
2017-11-04T08:01:43.712Z,1003.73
2017-11-04T08:02:52.333Z,1003.68
2017-11-04T08:04:00.958Z,1003.65
2017-11-04T08:05:09.576Z,1003.66
2017-11-04T08:06:18.550Z,1003.68
2017-11-04T08:07:27.174Z,1003.68
2017-11-04T08:08:35.800Z,1003.7
2017-11-04T08:09:44.418Z,1003.66
2017-11-04T08:10:53.037Z,1003.64
2017-11-04T08:12:01.666Z,1003.64
2017-11-04T08:13:10.286Z,1003.58
2017-11-04T08:14:18.910Z,1003.53
2017-11-04T08:15:27.543Z,1003.53
2017-11-04T08:16:36.165Z,1003.58
2017-11-04T08:17:44.786Z,1003.58
2017-11-04T08:18:53.417Z,1003.58
2017-11-04T08:20:02.039Z,1003.64
2017-11-04T08:21:10.660Z,1003.59
2017-11-04T08:22:19.286Z,1003.59
2017-11-04T08:23:27.904Z,1003.6
2017-11-04T08:24:36.537Z,1003.59
2017-11-04T08:25:45.157Z,1003.6
2017-11-04T08:26:53.779Z,1003.62
2017-11-04T08:28:02.412Z,1003.6
2017-11-04T08:29:11.031Z,1003.6
2017-11-04T08:30:19.652Z,1003.55
2017-11-04T08:31:28.278Z,1003.59
2017-11-04T08:32:36.902Z,1003.57
2017-11-04T08:33:45.521Z,1003.56
2017-11-04T08:34:54.146Z,1003.59
2017-11-04T08:36:03.100Z,1003.58
2017-11-04T08:37:11.718Z,1003.56
2017-11-04T08:38:20.348Z,1003.53
2017-11-04T08:39:28.971Z,1003.6
2017-11-04T08:40:37.600Z,1003.58
2017-11-04T08:41:46.224Z,1003.57
2017-11-04T08:42:55.172Z,1003.56
2017-11-04T08:44:03.800Z,1003.55
2017-11-04T08:45:12.423Z,1003.53
2017-11-04T08:46:21.054Z,1003.55
2017-11-04T08:47:29.678Z,1003.53
2017-11-04T08:48:38.307Z,1003.44
2017-11-04T08:49:46.934Z,1003.39
2017-11-04T08:50:55.560Z,1003.39
2017-11-04T08:52:04.178Z,1003.4
2017-11-04T08:53:12.806Z,1003.39
2017-11-04T08:54:21.423Z,1003.33
2017-11-04T08:55:30.056Z,1003.29
2017-11-04T08:56:38.674Z,1003.3
2017-11-04T08:57:47.299Z,1003.24
2017-11-04T08:58:56.253Z,1003.24
2017-11-04T09:00:04.883Z,1003.21
2017-11-04T09:01:13.502Z,1003.2
2017-11-04T09:02:22.129Z,1003.16
2017-11-04T09:03:31.086Z,1003.16
2017-11-04T09:04:39.703Z,1003.15
2017-11-04T09:05:48.331Z,1003.1
2017-11-04T09:06:56.958Z,1003.07
2017-11-04T09:08:05.585Z,1003.11
2017-11-04T09:09:14.212Z,1003.12
2017-11-04T09:10:22.832Z,1003.09
2017-11-04T09:11:31.460Z,1003.11
2017-11-04T09:12:40.086Z,1003.05
2017-11-04T09:13:48.707Z,1003.01
2017-11-04T09:14:57.327Z,1002.97
2017-11-04T09:16:05.955Z,1003.07
2017-11-04T09:17:14.916Z,1003.08
2017-11-04T09:18:23.537Z,1003.1
2017-11-04T09:19:32.168Z,1003.09
2017-11-04T09:20:40.786Z,1003.06
2017-11-04T09:21:49.415Z,1003.14
2017-11-04T09:22:58.031Z,1003.13
2017-11-04T09:24:06.658Z,1003.11
2017-11-04T09:25:15.283Z,1003.04
2017-11-04T09:26:23.907Z,1003.04
2017-11-04T09:27:32.529Z,1003.07
2017-11-04T09:28:41.158Z,1003.09
2017-11-04T09:29:49.779Z,1003.07
2017-11-04T09:30:58.402Z,1003.05
2017-11-04T09:32:07.031Z,1003.09
2017-11-04T09:33:15.656Z,1003.04
2017-11-04T09:34:24.276Z,1003.07
2017-11-04T09:35:32.905Z,1003.06
2017-11-04T09:36:41.846Z,1003.01
2017-11-04T09:37:50.479Z,1003.01
2017-11-04T09:38:59.101Z,1003.04
2017-11-04T09:40:07.726Z,1003.03
2017-11-04T09:41:16.357Z,1003.02
2017-11-04T09:42:24.982Z,1003.01
2017-11-04T09:43:33.605Z,1003.01
2017-11-04T09:44:42.569Z,1002.95
2017-11-04T09:45:51.193Z,1002.91
2017-11-04T09:46:59.821Z,1002.9
2017-11-04T09:48:08.446Z,1002.89
2017-11-04T09:49:17.067Z,1002.87
2017-11-04T09:50:25.697Z,1002.89
2017-11-04T09:51:34.641Z,1002.82
2017-11-04T09:52:43.275Z,1002.84
2017-11-04T09:53:51.896Z,1002.82
2017-11-04T09:55:00.522Z,1002.84
2017-11-04T09:56:09.156Z,1002.82
2017-11-04T09:57:17.770Z,1002.79
2017-11-04T09:58:26.396Z,1002.77
2017-11-04T09:59:35.026Z,1002.77
2017-11-04T10:00:43.647Z,1002.73
2017-11-04T10:01:52.270Z,1002.69
2017-11-04T10:03:00.898Z,1002.68
2017-11-04T10:04:09.529Z,1002.68
2017-11-04T10:05:18.146Z,1002.66
2017-11-04T10:06:26.778Z,1002.64
2017-11-04T10:07:35.743Z,1002.65
2017-11-04T10:08:44.373Z,1002.64
2017-11-04T10:09:52.993Z,1002.61
2017-11-04T10:11:02.282Z,1002.56
2017-11-04T10:12:10.914Z,1002.52
2017-11-04T10:13:19.544Z,1002.49
2017-11-04T10:14:28.166Z,1002.52
2017-11-04T10:15:36.792Z,1002.46
2017-11-04T10:16:45.427Z,1002.45
2017-11-04T10:17:54.039Z,1002.45
2017-11-04T10:19:02.672Z,1002.43
2017-11-04T10:20:11.296Z,1002.43
2017-11-04T10:21:19.926Z,1002.37
2017-11-04T10:22:28.552Z,1002.32
2017-11-04T10:23:37.833Z,1002.29
2017-11-04T10:24:46.466Z,1002.22
2017-11-04T10:25:55.095Z,1002.16
2017-11-04T10:27:03.712Z,1002.17
2017-11-04T10:28:12.341Z,1002.14
2017-11-04T10:29:20.971Z,1002.12
2017-11-04T10:30:29.597Z,1002.06
2017-11-04T10:31:38.220Z,1002.02
2017-11-04T10:32:46.853Z,1001.97
2017-11-04T10:33:55.472Z,1001.93
2017-11-04T10:35:04.433Z,1001.95
2017-11-04T10:36:13.087Z,1001.92
2017-11-04T10:37:21.683Z,1001.95
2017-11-04T10:38:30.310Z,1001.92
2017-11-04T10:39:38.931Z,1001.9
2017-11-04T10:40:47.556Z,1001.9
2017-11-04T10:41:56.189Z,1001.88
2017-11-04T10:43:04.809Z,1001.9
2017-11-04T10:44:13.436Z,1001.98
2017-11-04T10:45:22.057Z,1001.92
2017-11-04T10:46:30.684Z,1001.9
2017-11-04T10:47:39.317Z,1001.88
2017-11-04T10:48:47.942Z,1001.84
2017-11-04T10:49:56.574Z,1001.87
2017-11-04T10:51:05.196Z,1001.89
2017-11-04T10:52:13.825Z,1001.88
2017-11-04T10:53:22.461Z,1001.84
2017-11-04T10:54:31.082Z,1001.82
2017-11-04T10:55:39.712Z,1001.79
2017-11-04T10:56:48.340Z,1001.85
2017-11-04T10:57:56.972Z,1001.8
2017-11-04T10:59:05.600Z,1001.76
2017-11-04T11:00:14.230Z,1001.82
2017-11-04T11:01:22.857Z,1001.86
2017-11-04T11:02:31.478Z,1001.83
2017-11-04T11:03:40.113Z,1001.84
2017-11-04T11:04:48.732Z,1001.84
2017-11-04T11:05:57.361Z,1001.82
2017-11-04T11:07:05.986Z,1001.75
2017-11-04T11:08:14.611Z,1001.76
2017-11-04T11:09:23.248Z,1001.74
2017-11-04T11:10:31.873Z,1001.76
2017-11-04T11:11:40.502Z,1001.74
2017-11-04T11:12:49.132Z,1001.7
2017-11-04T11:13:57.749Z,1001.71
2017-11-04T11:15:06.379Z,1001.65
2017-11-04T11:16:15.005Z,1001.71
2017-11-04T11:17:24.295Z,1001.67
2017-11-04T11:18:32.925Z,1001.65
2017-11-04T11:19:41.554Z,1001.63
2017-11-04T11:20:50.184Z,1001.65
2017-11-04T11:21:58.804Z,1001.63
2017-11-04T11:23:07.433Z,1001.61
2017-11-04T11:24:16.065Z,1001.62
2017-11-04T11:25:24.691Z,1001.72
2017-11-04T11:26:33.314Z,1001.62
2017-11-04T11:27:41.946Z,1001.6
2017-11-04T11:28:50.572Z,1001.59
2017-11-04T11:29:59.198Z,1001.58
2017-11-04T11:31:07.834Z,1001.59
2017-11-04T11:32:16.458Z,1001.62
2017-11-04T11:33:25.086Z,1001.6
2017-11-04T11:34:33.708Z,1001.54
2017-11-04T11:35:42.666Z,1001.48
2017-11-04T11:36:51.300Z,1001.42
2017-11-04T11:37:59.926Z,1001.45
2017-11-04T11:39:08.547Z,1001.43
2017-11-04T11:40:17.182Z,1001.43
2017-11-04T11:41:25.806Z,1001.48
2017-11-04T11:42:34.432Z,1001.47
2017-11-04T11:43:43.056Z,1001.52
2017-11-04T11:44:51.679Z,1001.55
2017-11-04T11:46:00.315Z,1001.58
2017-11-04T11:47:08.936Z,1001.59
2017-11-04T11:48:17.570Z,1001.57
2017-11-04T11:49:26.192Z,1001.56
2017-11-04T11:50:34.818Z,1001.56
2017-11-04T11:51:43.448Z,1001.52
2017-11-04T11:52:52.073Z,1001.52
2017-11-04T11:54:00.700Z,1001.47
2017-11-04T11:55:09.335Z,1001.4
2017-11-04T11:56:17.958Z,1001.37
2017-11-04T11:57:26.583Z,1001.31
2017-11-04T11:58:35.225Z,1001.22
2017-11-04T11:59:43.847Z,1001.22
2017-11-04T12:00:52.472Z,1001.16
2017-11-04T12:02:01.100Z,1001.16
2017-11-04T12:03:09.721Z,1001.17
2017-11-04T12:04:18.355Z,1001.21
2017-11-04T12:05:26.982Z,1001.21
2017-11-04T12:06:35.606Z,1001.19
2017-11-04T12:07:44.243Z,1001.16
2017-11-04T12:08:52.866Z,1001.15
2017-11-04T12:10:01.492Z,1001.15
2017-11-04T12:11:10.119Z,1001.14
2017-11-04T12:12:18.748Z,1001.16
2017-11-04T12:13:27.366Z,1001.1
2017-11-04T12:14:35.996Z,1001.06
2017-11-04T12:15:44.627Z,1001.01
2017-11-04T12:16:53.250Z,1000.99
2017-11-04T12:18:02.214Z,1000.89
2017-11-04T12:19:10.842Z,1000.85
2017-11-04T12:20:19.475Z,1000.82
2017-11-04T12:21:28.105Z,1000.79
2017-11-04T12:22:36.723Z,1000.75
2017-11-04T12:23:45.350Z,1000.8
2017-11-04T12:24:53.984Z,1000.77
2017-11-04T12:26:02.604Z,1000.74
2017-11-04T12:27:11.579Z,1000.71
2017-11-04T12:28:20.197Z,1000.7
2017-11-04T12:29:28.823Z,1000.66
2017-11-04T12:30:37.451Z,1000.7
2017-11-04T12:31:46.086Z,1000.68
2017-11-04T12:32:54.711Z,1000.67
2017-11-04T12:34:03.347Z,1000.59
2017-11-04T12:35:11.971Z,1000.57
2017-11-04T12:36:20.599Z,1000.53
2017-11-04T12:37:29.229Z,1000.52
2017-11-04T12:38:37.857Z,1000.61
2017-11-04T12:39:46.491Z,1000.66
2017-11-04T12:40:55.112Z,1000.7
2017-11-04T12:42:04.095Z,1000.76
2017-11-04T12:43:12.726Z,1000.79
2017-11-04T12:44:21.346Z,1000.7
2017-11-04T12:45:29.980Z,1000.71
2017-11-04T12:46:38.947Z,1000.68
2017-11-04T12:47:47.577Z,1000.61
2017-11-04T12:48:56.211Z,1000.6
2017-11-04T12:50:04.833Z,1000.53
2017-11-04T12:51:13.463Z,1000.49
2017-11-04T12:52:22.093Z,1000.47
2017-11-04T12:53:30.714Z,1000.48
2017-11-04T12:54:39.347Z,1000.44
2017-11-04T12:55:47.982Z,1000.38
2017-11-04T12:56:56.602Z,1000.44
2017-11-04T12:58:05.231Z,1000.35
2017-11-04T12:59:13.868Z,1000.37
2017-11-04T13:00:22.495Z,1000.36
2017-11-04T13:01:31.127Z,1000.35
2017-11-04T13:02:39.751Z,1000.35
2017-11-04T13:03:48.380Z,1000.35
2017-11-04T13:04:57.009Z,1000.33
2017-11-04T13:06:05.635Z,1000.33
2017-11-04T13:07:14.264Z,1000.33
2017-11-04T13:08:22.900Z,1000.26
2017-11-04T13:09:31.526Z,1000.21
2017-11-04T13:10:40.151Z,1000.22
2017-11-04T13:11:48.786Z,1000.15
2017-11-04T13:12:57.411Z,1000.1
2017-11-04T13:14:06.038Z,1000.06
2017-11-04T13:15:14.670Z,1000.04
2017-11-04T13:16:23.290Z,1000.07
2017-11-04T13:17:31.925Z,1000.05
2017-11-04T13:18:40.550Z,1000.06
2017-11-04T13:19:49.508Z,1000.11
2017-11-04T13:20:58.145Z,1000.11
2017-11-04T13:22:06.775Z,1000.1
2017-11-04T13:23:15.401Z,1000.05
2017-11-04T13:24:24.031Z,1000.04
2017-11-04T13:25:32.664Z,1000.06
2017-11-04T13:26:41.285Z,1000.07
2017-11-04T13:27:49.919Z,1000.07
2017-11-04T13:28:58.546Z,1000.07
2017-11-04T13:30:07.167Z,1000.03
2017-11-04T13:31:16.136Z,1000.06
2017-11-04T13:32:24.763Z,1000.04
2017-11-04T13:33:33.392Z,1000.05
2017-11-04T13:34:42.025Z,1000
2017-11-04T13:35:50.647Z,999.99
2017-11-04T13:36:59.275Z,1000
2017-11-04T13:38:07.903Z,999.97
2017-11-04T13:39:16.539Z,1000.02
2017-11-04T13:40:25.162Z,1000.03
2017-11-04T13:41:33.790Z,1000.04
2017-11-04T13:42:42.421Z,1000.06
2017-11-04T13:43:51.055Z,1000.14
2017-11-04T13:44:59.679Z,1000.04
2017-11-04T13:46:08.310Z,1000.03
2017-11-04T13:47:16.935Z,1000.01
2017-11-04T13:48:25.570Z,999.94
2017-11-04T13:49:34.197Z,999.9
2017-11-04T13:50:42.825Z,999.91
2017-11-04T13:51:51.458Z,999.89
2017-11-04T13:53:00.089Z,999.89